sensor_id;sensor_type;location;lat;lon;timestamp;pressure;altitude;pressure_sealevel;temperature;humidity
6952;BME280;3515;50.138;8.502;2022-07-23T00:01:29;101630;;;21.1;69.9
6952;BME280;3515;50.138;8.502;2022-07-23T00:03:55;101660;;;21.1;69.9
6952;BME280;3515;50.138;8.502;2022-07-23T00:06:20;101650;;;21.1;69.9
6952;BME280;3515;50.138;8.502;2022-07-23T00:08:45;101630;;;21.1;69.9
6952;BME280;3515;50.138;8.502;2022-07-23T00:11:10;101610;;;21.1;69.9
6952;BME280;3515;50.138;8.502;2022-07-23T00:13:35;101630;;;21.1;70.9
6952;BME280;3515;50.138;8.502;2022-07-23T00:16:01;101620;;;21.0;71.4
6952;BME280;3515;50.138;8.502;2022-07-23T00:18:26;101640;;;20.9;71.4
6952;BME280;3515;50.138;8.502;2022-07-23T00:20:51;101600;;;20.8;71.9
6952;BME280;3515;50.138;8.502;2022-07-23T00:23:17;101630;;;20.8;71.9
6952;BME280;3515;50.138;8.502;2022-07-23T00:25:42;101620;;;20.7;71.4
6952;BME280;3515;50.138;8.502;2022-07-23T00:28:07;101650;;;20.8;70.9
6952;BME280;3515;50.138;8.502;2022-07-23T00:30:32;101650;;;20.8;70.9
6952;BME280;3515;50.138;8.502;2022-07-23T00:32:59;101630;;;20.8;71.4
6952;BME280;3515;50.138;8.502;2022-07-23T00:35:23;101640;;;20.8;71.4
6952;BME280;3515;50.138;8.502;2022-07-23T00:37:48;101660;;;20.7;71.4
6952;BME280;3515;50.138;8.502;2022-07-23T00:40:13;101640;;;20.7;71.4
6952;BME280;3515;50.138;8.502;2022-07-23T00:42:39;101640;;;20.7;71.4
6952;BME280;3515;50.138;8.502;2022-07-23T00:45:04;101630;;;20.8;71.5
6952;BME280;3515;50.138;8.502;2022-07-23T00:47:29;101620;;;20.8;71.9
6952;BME280;3515;50.138;8.502;2022-07-23T00:49:54;101610;;;20.7;72.0
6952;BME280;3515;50.138;8.502;2022-07-23T00:52:19;101630;;;20.7;72.0
6952;BME280;3515;50.138;8.502;2022-07-23T00:54:45;101630;;;20.6;71.9
6952;BME280;3515;50.138;8.502;2022-07-23T00:57:10;101620;;;20.6;71.9
6952;BME280;3515;50.138;8.502;2022-07-23T00:59:35;101650;;;20.6;72.4
6952;BME280;3515;50.138;8.502;2022-07-23T01:02:01;101630;;;20.5;72.4
6952;BME280;3515;50.138;8.502;2022-07-23T01:04:26;101620;;;20.5;72.9
6952;BME280;3515;50.138;8.502;2022-07-23T01:06:51;101630;;;20.5;72.9
6952;BME280;3515;50.138;8.502;2022-07-23T01:09:16;101630;;;20.4;72.9
6952;BME280;3515;50.138;8.502;2022-07-23T01:11:41;101630;;;20.4;72.9
6952;BME280;3515;50.138;8.502;2022-07-23T01:14:08;101640;;;20.4;72.9
6952;BME280;3515;50.138;8.502;2022-07-23T01:16:32;101670;;;20.4;73.0
6952;BME280;3515;50.138;8.502;2022-07-23T01:18:57;101660;;;20.4;73.0
6952;BME280;3515;50.138;8.502;2022-07-23T01:21:23;101670;;;20.4;73.0
6952;BME280;3515;50.138;8.502;2022-07-23T01:23:48;101660;;;20.4;72.9
6952;BME280;3515;50.138;8.502;2022-07-23T01:26:13;101660;;;20.4;72.9
6952;BME280;3515;50.138;8.502;2022-07-23T01:28:38;101680;;;20.4;72.9
6952;BME280;3515;50.138;8.502;2022-07-23T01:31:04;101680;;;20.4;73.0
6952;BME280;3515;50.138;8.502;2022-07-23T01:33:29;101690;;;20.5;73.0
6952;BME280;3515;50.138;8.502;2022-07-23T01:35:54;101650;;;20.5;73.0
6952;BME280;3515;50.138;8.502;2022-07-23T01:38:19;101650;;;20.5;73.0
6952;BME280;3515;50.138;8.502;2022-07-23T01:40:45;101630;;;20.4;73.5
6952;BME280;3515;50.138;8.502;2022-07-23T01:43:10;101620;;;20.4;73.5
6952;BME280;3515;50.138;8.502;2022-07-23T01:45:35;101610;;;20.5;73.5
6952;BME280;3515;50.138;8.502;2022-07-23T01:48:00;101600;;;20.5;74.0
6952;BME280;3515;50.138;8.502;2022-07-23T01:50:26;101610;;;20.6;73.5
6952;BME280;3515;50.138;8.502;2022-07-23T01:52:51;101620;;;20.5;74.0
6952;BME280;3515;50.138;8.502;2022-07-23T01:55:16;101610;;;20.5;74.0
6952;BME280;3515;50.138;8.502;2022-07-23T01:57:41;101630;;;20.4;73.9
6952;BME280;3515;50.138;8.502;2022-07-23T02:00:08;101630;;;20.4;73.9
6952;BME280;3515;50.138;8.502;2022-07-23T02:02:32;101630;;;20.4;73.9
6952;BME280;3515;50.138;8.502;2022-07-23T02:04:57;101620;;;20.4;73.9
6952;BME280;3515;50.138;8.502;2022-07-23T02:07:22;101640;;;20.4;73.9
6952;BME280;3515;50.138;8.502;2022-07-23T02:09:47;101630;;;20.4;73.9
6952;BME280;3515;50.138;8.502;2022-07-23T02:12:13;101650;;;20.3;74.4
6952;BME280;3515;50.138;8.502;2022-07-23T02:14:38;101660;;;20.3;74.4
6952;BME280;3515;50.138;8.502;2022-07-23T02:17:03;101670;;;20.2;74.4
6952;BME280;3515;50.138;8.502;2022-07-23T02:19:28;101650;;;20.2;74.4
6952;BME280;3515;50.138;8.502;2022-07-23T02:21:54;101640;;;20.2;74.4
6952;BME280;3515;50.138;8.502;2022-07-23T02:24:19;101650;;;20.1;74.4
6952;BME280;3515;50.138;8.502;2022-07-23T02:26:49;101640;;;20.1;74.4
6952;BME280;3515;50.138;8.502;2022-07-23T02:29:15;101680;;;20.1;74.9
6952;BME280;3515;50.138;8.502;2022-07-23T02:31:40;101670;;;20.1;74.9
6952;BME280;3515;50.138;8.502;2022-07-23T02:34:05;101670;;;20.1;75.4
6952;BME280;3515;50.138;8.502;2022-07-23T02:36:30;101660;;;20.0;75.9
6952;BME280;3515;50.138;8.502;2022-07-23T02:38:56;101650;;;20.0;75.9
6952;BME280;3515;50.138;8.502;2022-07-23T02:41:21;101670;;;20.0;75.9
6952;BME280;3515;50.138;8.502;2022-07-23T02:43:46;101670;;;19.9;76.4
6952;BME280;3515;50.138;8.502;2022-07-23T02:48:42;101680;;;19.9;76.4
6952;BME280;3515;50.138;8.502;2022-07-23T02:51:07;101650;;;19.9;76.4
6952;BME280;3515;50.138;8.502;2022-07-23T02:53:32;101680;;;19.9;76.9
6952;BME280;3515;50.138;8.502;2022-07-23T02:55:57;101680;;;19.8;76.9
6952;BME280;3515;50.138;8.502;2022-07-23T02:58:23;101660;;;19.8;76.4
6952;BME280;3515;50.138;8.502;2022-07-23T03:00:48;101680;;;19.8;76.9
6952;BME280;3515;50.138;8.502;2022-07-23T03:03:13;101680;;;19.7;76.9
6952;BME280;3515;50.138;8.502;2022-07-23T03:05:38;101680;;;19.7;76.9
6952;BME280;3515;50.138;8.502;2022-07-23T03:08:04;101640;;;19.6;77.4
6952;BME280;3515;50.138;8.502;2022-07-23T03:10:29;101660;;;19.6;77.4
6952;BME280;3515;50.138;8.502;2022-07-23T03:12:54;101660;;;19.6;77.4
6952;BME280;3515;50.138;8.502;2022-07-23T03:15:20;101680;;;19.6;77.4
6952;BME280;3515;50.138;8.502;2022-07-23T03:17:50;101660;;;19.5;77.9
6952;BME280;3515;50.138;8.502;2022-07-23T03:20:15;101670;;;19.5;77.9
6952;BME280;3515;50.138;8.502;2022-07-23T03:22:40;101700;;;19.5;77.9
6952;BME280;3515;50.138;8.502;2022-07-23T03:25:06;101680;;;19.4;77.9
6952;BME280;3515;50.138;8.502;2022-07-23T03:27:31;101690;;;19.4;77.9
6952;BME280;3515;50.138;8.502;2022-07-23T03:29:57;101680;;;19.3;78.4
6952;BME280;3515;50.138;8.502;2022-07-23T03:32:21;101670;;;19.3;78.4
6952;BME280;3515;50.138;8.502;2022-07-23T03:34:46;101700;;;19.3;78.4
6952;BME280;3515;50.138;8.502;2022-07-23T03:37:12;101690;;;19.2;78.4
6952;BME280;3515;50.138;8.502;2022-07-23T03:39:37;101690;;;19.2;78.4
6952;BME280;3515;50.138;8.502;2022-07-23T03:42:03;101690;;;19.2;78.4
6952;BME280;3515;50.138;8.502;2022-07-23T03:44:28;101680;;;19.2;78.4
6952;BME280;3515;50.138;8.502;2022-07-23T03:46:53;101690;;;19.2;78.4
6952;BME280;3515;50.138;8.502;2022-07-23T03:49:18;101690;;;19.2;78.4
6952;BME280;3515;50.138;8.502;2022-07-23T03:51:43;101690;;;19.2;77.9
6952;BME280;3515;50.138;8.502;2022-07-23T03:54:09;101690;;;19.2;78.4
6952;BME280;3515;50.138;8.502;2022-07-23T03:56:34;101690;;;19.2;78.4
6952;BME280;3515;50.138;8.502;2022-07-23T03:58:59;101700;;;19.2;78.4
6952;BME280;3515;50.138;8.502;2022-07-23T04:01:24;101710;;;19.2;78.4
6952;BME280;3515;50.138;8.502;2022-07-23T04:03:50;101710;;;19.2;78.4
6952;BME280;3515;50.138;8.502;2022-07-23T04:06:15;101690;;;19.2;78.4
6952;BME280;3515;50.138;8.502;2022-07-23T04:08:40;101720;;;19.2;78.9
6952;BME280;3515;50.138;8.502;2022-07-23T04:11:05;101700;;;19.2;78.9
6952;BME280;3515;50.138;8.502;2022-07-23T04:13:31;101680;;;19.2;78.9
6952;BME280;3515;50.138;8.502;2022-07-23T04:15:56;101710;;;19.2;78.4
6952;BME280;3515;50.138;8.502;2022-07-23T04:18:21;101690;;;19.3;78.4
6952;BME280;3515;50.138;8.502;2022-07-23T04:20:46;101690;;;19.3;78.4
6952;BME280;3515;50.138;8.502;2022-07-23T04:23:12;101710;;;19.3;78.4
6952;BME280;3515;50.138;8.502;2022-07-23T04:25:37;101710;;;19.4;77.9
6952;BME280;3515;50.138;8.502;2022-07-23T04:28:03;101710;;;19.4;78.0
6952;BME280;3515;50.138;8.502;2022-07-23T04:30:27;101720;;;19.4;78.0
6952;BME280;3515;50.138;8.502;2022-07-23T04:32:53;101730;;;19.4;78.0
6952;BME280;3515;50.138;8.502;2022-07-23T04:35:18;101710;;;19.4;77.9
6952;BME280;3515;50.138;8.502;2022-07-23T04:37:43;101730;;;19.4;77.9
6952;BME280;3515;50.138;8.502;2022-07-23T04:40:09;101750;;;19.4;78.4
6952;BME280;3515;50.138;8.502;2022-07-23T04:42:34;101750;;;19.4;78.4
6952;BME280;3515;50.138;8.502;2022-07-23T04:44:59;101730;;;19.4;78.4
6952;BME280;3515;50.138;8.502;2022-07-23T04:47:24;101750;;;19.4;78.4
6952;BME280;3515;50.138;8.502;2022-07-23T04:49:49;101780;;;19.4;77.9
6952;BME280;3515;50.138;8.502;2022-07-23T04:52:15;101740;;;19.4;77.9
6952;BME280;3515;50.138;8.502;2022-07-23T04:54:40;101770;;;19.6;78.0
6952;BME280;3515;50.138;8.502;2022-07-23T04:57:05;101740;;;19.6;78.0
6952;BME280;3515;50.138;8.502;2022-07-23T04:59:30;101770;;;19.7;78.0
6952;BME280;3515;50.138;8.502;2022-07-23T05:01:56;101770;;;19.8;77.5
6952;BME280;3515;50.138;8.502;2022-07-23T05:04:26;101770;;;19.8;77.5
6952;BME280;3515;50.138;8.502;2022-07-23T05:06:51;101770;;;19.9;77.5
6952;BME280;3515;50.138;8.502;2022-07-23T05:09:16;101770;;;19.9;77.5
6952;BME280;3515;50.138;8.502;2022-07-23T05:11:41;101770;;;19.9;77.5
6952;BME280;3515;50.138;8.502;2022-07-23T05:14:07;101780;;;19.9;77.5
6952;BME280;3515;50.138;8.502;2022-07-23T05:16:32;101750;;;19.9;77.4
6952;BME280;3515;50.138;8.502;2022-07-23T05:18:57;101770;;;19.9;77.9
6952;BME280;3515;50.138;8.502;2022-07-23T05:21:22;101770;;;19.9;77.4
6952;BME280;3515;50.138;8.502;2022-07-23T05:23:48;101760;;;19.9;77.4
6952;BME280;3515;50.138;8.502;2022-07-23T05:26:13;101770;;;19.9;77.4
6952;BME280;3515;50.138;8.502;2022-07-23T05:28:38;101790;;;19.9;77.4
6952;BME280;3515;50.138;8.502;2022-07-23T05:31:04;101770;;;19.9;77.4
6952;BME280;3515;50.138;8.502;2022-07-23T05:33:29;101730;;;20.0;77.0
6952;BME280;3515;50.138;8.502;2022-07-23T05:35:54;101780;;;20.0;77.0
6952;BME280;3515;50.138;8.502;2022-07-23T05:38:19;101810;;;20.0;77.0
6952;BME280;3515;50.138;8.502;2022-07-23T05:40:44;101780;;;20.0;76.5
6952;BME280;3515;50.138;8.502;2022-07-23T05:43:10;101790;;;20.0;74.5
6952;BME280;3515;50.138;8.502;2022-07-23T05:45:35;101820;;;20.0;74.5
6952;BME280;3515;50.138;8.502;2022-07-23T05:48:00;101800;;;20.1;73.5
6952;BME280;3515;50.138;8.502;2022-07-23T05:50:26;101820;;;20.2;73.5
6952;BME280;3515;50.138;8.502;2022-07-23T05:52:51;101810;;;20.3;73.5
6952;BME280;3515;50.138;8.502;2022-07-23T05:55:16;101810;;;20.4;72.0
6952;BME280;3515;50.138;8.502;2022-07-23T05:57:41;101810;;;20.4;72.0
6952;BME280;3515;50.138;8.502;2022-07-23T06:00:08;101820;;;20.6;71.0
6952;BME280;3515;50.138;8.502;2022-07-23T06:02:32;101820;;;20.6;70.5
6952;BME280;3515;50.138;8.502;2022-07-23T06:04:57;101790;;;20.6;71.5
6952;BME280;3515;50.138;8.502;2022-07-23T06:07:23;101810;;;20.8;71.0
6952;BME280;3515;50.138;8.502;2022-07-23T06:09:48;101810;;;21.0;70.5
6952;BME280;3515;50.138;8.502;2022-07-23T06:12:13;101790;;;21.0;70.5
6952;BME280;3515;50.138;8.502;2022-07-23T06:14:38;101800;;;20.9;71.0
6952;BME280;3515;50.138;8.502;2022-07-23T06:17:04;101820;;;20.8;70.5
6952;BME280;3515;50.138;8.502;2022-07-23T06:19:29;101790;;;20.8;71.0
6952;BME280;3515;50.138;8.502;2022-07-23T06:21:54;101810;;;20.7;71.5
6952;BME280;3515;50.138;8.502;2022-07-23T06:24:20;101810;;;20.8;71.0
6952;BME280;3515;50.138;8.502;2022-07-23T06:26:45;101820;;;20.8;70.5
6952;BME280;3515;50.138;8.502;2022-07-23T06:29:10;101810;;;20.9;71.0
6952;BME280;3515;50.138;8.502;2022-07-23T06:31:35;101820;;;21.0;70.0
6952;BME280;3515;50.138;8.502;2022-07-23T06:34:00;101850;;;21.0;70.0
6952;BME280;3515;50.138;8.502;2022-07-23T06:36:26;101830;;;21.2;69.5
6952;BME280;3515;50.138;8.502;2022-07-23T06:38:51;101830;;;21.2;70.0
6952;BME280;3515;50.138;8.502;2022-07-23T06:41:16;101820;;;21.3;70.0
6952;BME280;3515;50.138;8.502;2022-07-23T06:43:41;101830;;;21.4;69.5
6952;BME280;3515;50.138;8.502;2022-07-23T06:46:07;101830;;;21.5;69.5
6952;BME280;3515;50.138;8.502;2022-07-23T06:48:32;101830;;;21.5;68.5
6952;BME280;3515;50.138;8.502;2022-07-23T06:50:57;101830;;;21.6;68.5
6952;BME280;3515;50.138;8.502;2022-07-23T06:53:22;101820;;;21.5;69.5
6952;BME280;3515;50.138;8.502;2022-07-23T06:55:48;101810;;;21.2;69.5
6952;BME280;3515;50.138;8.502;2022-07-23T06:58:13;101810;;;21.2;69.5
6952;BME280;3515;50.138;8.502;2022-07-23T07:00:38;101830;;;21.3;70.0
6952;BME280;3515;50.138;8.502;2022-07-23T07:03:03;101820;;;21.6;69.0
6952;BME280;3515;50.138;8.502;2022-07-23T07:05:29;101820;;;21.5;69.5
6952;BME280;3515;50.138;8.502;2022-07-23T07:07:54;101840;;;21.5;69.5
6952;BME280;3515;50.138;8.502;2022-07-23T07:10:19;101840;;;21.6;68.5
6952;BME280;3515;50.138;8.502;2022-07-23T07:12:44;101840;;;22.0;68.0
6952;BME280;3515;50.138;8.502;2022-07-23T07:15:10;101860;;;22.1;68.5
6952;BME280;3515;50.138;8.502;2022-07-23T07:17:35;101820;;;22.4;66.5
6952;BME280;3515;50.138;8.502;2022-07-23T07:20:00;101850;;;22.7;64.0
6952;BME280;3515;50.138;8.502;2022-07-23T07:22:26;101860;;;22.5;64.5
6952;BME280;3515;50.138;8.502;2022-07-23T07:24:51;101840;;;22.6;64.5
6952;BME280;3515;50.138;8.502;2022-07-23T07:27:16;101850;;;22.9;63.0
6952;BME280;3515;50.138;8.502;2022-07-23T07:29:41;101860;;;23.1;62.0
6952;BME280;3515;50.138;8.502;2022-07-23T07:32:07;101870;;;23.1;62.0
6952;BME280;3515;50.138;8.502;2022-07-23T07:34:32;101880;;;23.1;62.5
6952;BME280;3515;50.138;8.502;2022-07-23T07:36:57;101850;;;23.1;62.0
6952;BME280;3515;50.138;8.502;2022-07-23T07:39:22;101870;;;23.2;62.5
6952;BME280;3515;50.138;8.502;2022-07-23T07:41:48;101860;;;23.3;61.1
6952;BME280;3515;50.138;8.502;2022-07-23T07:44:13;101890;;;23.4;61.5
6952;BME280;3515;50.138;8.502;2022-07-23T07:46:38;101890;;;23.2;61.5
6952;BME280;3515;50.138;8.502;2022-07-23T07:49:03;101870;;;23.2;62.0
6952;BME280;3515;50.138;8.502;2022-07-23T07:51:29;101890;;;23.6;60.5
6952;BME280;3515;50.138;8.502;2022-07-23T07:53:54;101870;;;23.5;61.5
6952;BME280;3515;50.138;8.502;2022-07-23T07:56:19;101890;;;23.5;61.0
6952;BME280;3515;50.138;8.502;2022-07-23T07:58:45;101900;;;23.7;60.5
6952;BME280;3515;50.138;8.502;2022-07-23T08:01:10;101900;;;23.6;61.0
6952;BME280;3515;50.138;8.502;2022-07-23T08:03:35;101900;;;23.4;61.5
6952;BME280;3515;50.138;8.502;2022-07-23T08:06:00;101890;;;23.5;60.5
6952;BME280;3515;50.138;8.502;2022-07-23T08:08:25;101890;;;23.6;60.4
6952;BME280;3515;50.138;8.502;2022-07-23T08:10:51;101890;;;23.8;59.4
6952;BME280;3515;50.138;8.502;2022-07-23T08:13:16;101900;;;23.7;61.0
6952;BME280;3515;50.138;8.502;2022-07-23T08:15:42;101890;;;23.5;61.5
6952;BME280;3515;50.138;8.502;2022-07-23T08:18:07;101900;;;23.4;61.5
6952;BME280;3515;50.138;8.502;2022-07-23T08:20:32;101890;;;23.3;61.0
6952;BME280;3515;50.138;8.502;2022-07-23T08:22:58;101890;;;23.4;61.0
6952;BME280;3515;50.138;8.502;2022-07-23T08:25:23;101890;;;23.5;60.5
6952;BME280;3515;50.138;8.502;2022-07-23T08:27:48;101910;;;23.8;59.5
6952;BME280;3515;50.138;8.502;2022-07-23T08:30:13;101880;;;23.8;60.5
6952;BME280;3515;50.138;8.502;2022-07-23T08:35:04;101920;;;23.9;60.0
6952;BME280;3515;50.138;8.502;2022-07-23T08:37:28;101920;;;24.0;59.5
6952;BME280;3515;50.138;8.502;2022-07-23T08:39:54;101890;;;24.3;59.5
6952;BME280;3515;50.138;8.502;2022-07-23T08:42:19;101910;;;24.3;59.5
6952;BME280;3515;50.138;8.502;2022-07-23T08:44:45;101900;;;24.4;60.5
6952;BME280;3515;50.138;8.502;2022-07-23T08:47:10;101930;;;24.1;60.5
6952;BME280;3515;50.138;8.502;2022-07-23T08:49:35;101890;;;24.1;59.5
6952;BME280;3515;50.138;8.502;2022-07-23T08:52:00;101910;;;24.4;59.0
6952;BME280;3515;50.138;8.502;2022-07-23T08:54:25;101910;;;24.7;59.0
6952;BME280;3515;50.138;8.502;2022-07-23T08:56:57;101890;;;24.9;58.5
6952;BME280;3515;50.138;8.502;2022-07-23T08:59:21;101900;;;25.1;58.0
6952;BME280;3515;50.138;8.502;2022-07-23T09:01:46;101900;;;25.5;56.9
6952;BME280;3515;50.138;8.502;2022-07-23T09:04:11;101910;;;25.5;56.4
6952;BME280;3515;50.138;8.502;2022-07-23T09:06:38;101890;;;25.7;57.0
6952;BME280;3515;50.138;8.502;2022-07-23T09:11:27;101880;;;25.1;57.5
6952;BME280;3515;50.138;8.502;2022-07-23T09:13:52;101890;;;24.9;58.5
6952;BME280;3515;50.138;8.502;2022-07-23T09:16:19;101900;;;24.6;59.0
6952;BME280;3515;50.138;8.502;2022-07-23T09:18:44;101880;;;24.9;58.5
6952;BME280;3515;50.138;8.502;2022-07-23T09:21:10;101910;;;24.8;58.5
6952;BME280;3515;50.138;8.502;2022-07-23T09:23:38;101910;;;24.9;57.5
6952;BME280;3515;50.138;8.502;2022-07-23T09:26:00;101910;;;25.0;57.0
6952;BME280;3515;50.138;8.502;2022-07-23T09:28:24;101900;;;25.1;57.0
6952;BME280;3515;50.138;8.502;2022-07-23T09:30:50;101920;;;25.2;56.5
6952;BME280;3515;50.138;8.502;2022-07-23T09:33:15;101900;;;25.0;56.5
6952;BME280;3515;50.138;8.502;2022-07-23T09:35:48;101910;;;25.1;56.5
6952;BME280;3515;50.138;8.502;2022-07-23T09:38:05;101900;;;25.1;56.0
6952;BME280;3515;50.138;8.502;2022-07-23T09:40:30;101910;;;25.0;56.5
6952;BME280;3515;50.138;8.502;2022-07-23T09:42:56;101880;;;24.9;57.0
6952;BME280;3515;50.138;8.502;2022-07-23T09:45:21;101860;;;24.8;56.5
6952;BME280;3515;50.138;8.502;2022-07-23T09:47:46;101900;;;24.8;56.5
6952;BME280;3515;50.138;8.502;2022-07-23T09:50:11;101900;;;25.1;55.5
6952;BME280;3515;50.138;8.502;2022-07-23T09:52:42;101910;;;25.2;55.5
6952;BME280;3515;50.138;8.502;2022-07-23T09:55:03;101890;;;24.9;57.0
6952;BME280;3515;50.138;8.502;2022-07-23T09:57:27;101900;;;24.9;56.0
6952;BME280;3515;50.138;8.502;2022-07-23T09:59:52;101900;;;25.2;55.0
6952;BME280;3515;50.138;8.502;2022-07-23T10:02:19;101930;;;25.6;54.2
6952;BME280;3515;50.138;8.502;2022-07-23T10:04:44;101900;;;25.8;54.4
6952;BME280;3515;50.138;8.502;2022-07-23T10:07:09;101890;;;25.6;54.5
6952;BME280;3515;50.138;8.502;2022-07-23T10:09:35;101910;;;25.9;54.0
6952;BME280;3515;50.138;8.502;2022-07-23T10:12:00;101920;;;25.9;54.0
6952;BME280;3515;50.138;8.502;2022-07-23T10:14:25;101880;;;25.9;53.4
6952;BME280;3515;50.138;8.502;2022-07-23T10:16:50;101890;;;26.1;54.0
6952;BME280;3515;50.138;8.502;2022-07-23T10:19:16;101900;;;26.2;53.4
6952;BME280;3515;50.138;8.502;2022-07-23T10:21:42;101900;;;26.1;53.4
6952;BME280;3515;50.138;8.502;2022-07-23T10:24:12;101890;;;26.2;53.4
6952;BME280;3515;50.138;8.502;2022-07-23T10:26:35;101870;;;26.1;54.0
6952;BME280;3515;50.138;8.502;2022-07-23T10:29:01;101880;;;25.9;54.5
6952;BME280;3515;50.138;8.502;2022-07-23T10:31:28;101920;;;26.1;53.5
6952;BME280;3515;50.138;8.502;2022-07-23T10:33:51;101890;;;26.0;54.0
6952;BME280;3515;50.138;8.502;2022-07-23T10:36:17;101880;;;25.9;54.0
6952;BME280;3515;50.138;8.502;2022-07-23T10:38:42;101900;;;25.7;54.5
6952;BME280;3515;50.138;8.502;2022-07-23T10:41:03;101880;;;25.6;54.5
6952;BME280;3515;50.138;8.502;2022-07-23T10:43:28;101870;;;25.8;54.5
6952;BME280;3515;50.138;8.502;2022-07-23T10:45:53;101900;;;25.8;54.5
6952;BME280;3515;50.138;8.502;2022-07-23T10:48:19;101910;;;25.6;54.5
6952;BME280;3515;50.138;8.502;2022-07-23T10:50:45;101890;;;25.8;54.0
6952;BME280;3515;50.138;8.502;2022-07-23T10:53:11;101870;;;25.8;53.5
6952;BME280;3515;50.138;8.502;2022-07-23T10:55:39;101890;;;25.8;54.0
6952;BME280;3515;50.138;8.502;2022-07-23T10:58:03;101880;;;25.8;54.0
6952;BME280;3515;50.138;8.502;2022-07-23T11:00:28;101890;;;25.8;53.5
6952;BME280;3515;50.138;8.502;2022-07-23T11:02:59;101890;;;25.7;53.0
6952;BME280;3515;50.138;8.502;2022-07-23T11:05:24;101880;;;25.8;53.0
6952;BME280;3515;50.138;8.502;2022-07-23T11:12:39;101880;;;26.7;48.4
6952;BME280;3515;50.138;8.502;2022-07-23T11:15:06;101900;;;26.8;47.9
6952;BME280;3515;50.138;8.502;2022-07-23T11:17:29;101880;;;26.9;47.4
6952;BME280;3515;50.138;8.502;2022-07-23T11:24:50;101870;;;27.1;47.5
6952;BME280;3515;50.138;8.502;2022-07-23T11:27:10;101870;;;27.2;48.0
6952;BME280;3515;50.138;8.502;2022-07-23T11:29:43;101860;;;27.7;48.0
6952;BME280;3515;50.138;8.502;2022-07-23T11:32:02;101880;;;27.8;47.4
6952;BME280;3515;50.138;8.502;2022-07-23T11:34:34;101870;;;27.6;47.4
6952;BME280;3515;50.138;8.502;2022-07-23T11:36:56;101880;;;27.4;46.4
6952;BME280;3515;50.138;8.502;2022-07-23T11:39:21;101860;;;27.2;46.4
6952;BME280;3515;50.138;8.502;2022-07-23T11:41:47;101870;;;27.6;46.0
6952;BME280;3515;50.138;8.502;2022-07-23T11:46:37;101860;;;27.8;46.0
6952;BME280;3515;50.138;8.502;2022-07-23T11:49:02;101880;;;27.9;45.4
6952;BME280;3515;50.138;8.502;2022-07-23T11:51:28;101870;;;28.2;45.4
6952;BME280;3515;50.138;8.502;2022-07-23T11:53:53;101870;;;27.9;46.0
6952;BME280;3515;50.138;8.502;2022-07-23T11:56:18;101870;;;27.6;45.5
6952;BME280;3515;50.138;8.502;2022-07-23T11:58:54;101870;;;27.8;45.5
6952;BME280;3515;50.138;8.502;2022-07-23T12:01:09;101850;;;27.7;45.0
6952;BME280;3515;50.138;8.502;2022-07-23T12:03:34;101880;;;27.8;45.0
6952;BME280;3515;50.138;8.502;2022-07-23T12:05:59;101850;;;28.0;45.5
6952;BME280;3515;50.138;8.502;2022-07-23T12:08:24;101880;;;28.1;44.5
6952;BME280;3515;50.138;8.502;2022-07-23T12:10:50;101860;;;28.1;45.0
6952;BME280;3515;50.138;8.502;2022-07-23T12:13:16;101870;;;27.9;45.0
6952;BME280;3515;50.138;8.502;2022-07-23T12:15:41;101850;;;28.1;45.0
6952;BME280;3515;50.138;8.502;2022-07-23T12:18:06;101870;;;28.4;45.5
6952;BME280;3515;50.138;8.502;2022-07-23T12:20:31;101870;;;28.2;44.0
6952;BME280;3515;50.138;8.502;2022-07-23T12:22:57;101850;;;28.2;44.5
6952;BME280;3515;50.138;8.502;2022-07-23T12:25:22;101850;;;28.1;44.5
6952;BME280;3515;50.138;8.502;2022-07-23T12:27:57;101820;;;28.4;45.0
6952;BME280;3515;50.138;8.502;2022-07-23T12:30:17;101860;;;28.4;45.0
6952;BME280;3515;50.138;8.502;2022-07-23T12:32:42;101860;;;28.1;45.0
6952;BME280;3515;50.138;8.502;2022-07-23T12:35:03;101850;;;27.9;45.5
6952;BME280;3515;50.138;8.502;2022-07-23T12:37:28;101850;;;28.0;45.0
6952;BME280;3515;50.138;8.502;2022-07-23T12:39:53;101850;;;27.9;45.0
6952;BME280;3515;50.138;8.502;2022-07-23T12:42:18;101850;;;28.2;44.5
6952;BME280;3515;50.138;8.502;2022-07-23T12:47:08;101840;;;28.6;44.0
6952;BME280;3515;50.138;8.502;2022-07-23T12:49:34;101860;;;28.6;44.5
6952;BME280;3515;50.138;8.502;2022-07-23T12:51:59;101840;;;28.6;44.0
6952;BME280;3515;50.138;8.502;2022-07-23T12:54:26;101850;;;28.8;44.0
6952;BME280;3515;50.138;8.502;2022-07-23T12:56:49;101890;;;28.7;44.0
6952;BME280;3515;50.138;8.502;2022-07-23T12:59:15;101890;;;28.8;44.0
6952;BME280;3515;50.138;8.502;2022-07-23T13:01:40;101850;;;28.9;43.5
6952;BME280;3515;50.138;8.502;2022-07-23T13:04:06;101870;;;28.8;44.0
6952;BME280;3515;50.138;8.502;2022-07-23T13:06:31;101850;;;29.1;43.5
6952;BME280;3515;50.138;8.502;2022-07-23T13:08:56;101850;;;28.9;44.0
6952;BME280;3515;50.138;8.502;2022-07-23T13:11:21;101840;;;29.2;43.5
6952;BME280;3515;50.138;8.502;2022-07-23T13:13:46;101860;;;29.4;42.3
6952;BME280;3515;50.138;8.502;2022-07-23T13:16:12;101870;;;29.2;42.5
6952;BME280;3515;50.138;8.502;2022-07-23T13:18:37;101880;;;29.0;42.0
6952;BME280;3515;50.138;8.502;2022-07-23T13:21:02;101880;;;28.9;43.0
6952;BME280;3515;50.138;8.502;2022-07-23T13:23:28;101850;;;28.9;42.5
6952;BME280;3515;50.138;8.502;2022-07-23T13:25:53;101860;;;28.9;43.0
6952;BME280;3515;50.138;8.502;2022-07-23T13:28:18;101880;;;28.6;43.5
6952;BME280;3515;50.138;8.502;2022-07-23T13:30:44;101840;;;28.6;43.5
6952;BME280;3515;50.138;8.502;2022-07-23T13:33:08;101860;;;28.9;42.6
6952;BME280;3515;50.138;8.502;2022-07-23T13:35:34;101880;;;28.8;42.5
6952;BME280;3515;50.138;8.502;2022-07-23T13:37:59;101860;;;28.6;42.0
6952;BME280;3515;50.138;8.502;2022-07-23T13:40:24;101860;;;28.5;42.5
6952;BME280;3515;50.138;8.502;2022-07-23T13:42:49;101860;;;28.8;43.0
6952;BME280;3515;50.138;8.502;2022-07-23T13:45:16;101850;;;28.6;43.0
6952;BME280;3515;50.138;8.502;2022-07-23T13:47:40;101850;;;28.4;43.0
6952;BME280;3515;50.138;8.502;2022-07-23T13:50:05;101870;;;28.2;43.0
6952;BME280;3515;50.138;8.502;2022-07-23T13:52:30;101860;;;28.4;43.0
6952;BME280;3515;50.138;8.502;2022-07-23T13:54:56;101850;;;28.5;42.5
6952;BME280;3515;50.138;8.502;2022-07-23T13:57:21;101840;;;28.6;42.5
6952;BME280;3515;50.138;8.502;2022-07-23T13:59:46;101850;;;28.4;42.5
6952;BME280;3515;50.138;8.502;2022-07-23T14:02:11;101860;;;28.1;43.5
6952;BME280;3515;50.138;8.502;2022-07-23T14:04:37;101870;;;27.9;43.5
6952;BME280;3515;50.138;8.502;2022-07-23T14:07:02;101870;;;27.9;43.5
6952;BME280;3515;50.138;8.502;2022-07-23T14:09:27;101870;;;28.0;43.0
6952;BME280;3515;50.138;8.502;2022-07-23T14:11:56;101870;;;28.0;43.5
6952;BME280;3515;50.138;8.502;2022-07-23T14:14:22;101870;;;28.0;43.5
6952;BME280;3515;50.138;8.502;2022-07-23T14:16:47;101850;;;27.9;43.0
6952;BME280;3515;50.138;8.502;2022-07-23T14:19:13;101840;;;28.1;42.5